createdAt,value
2023-10-18T00:00:12.937Z,16.90
2023-10-18T00:01:12.990Z,16.50
2023-10-18T00:02:12.879Z,19.40
2023-10-18T00:03:13.002Z,15.90
2023-10-18T00:04:12.876Z,16.40
2023-10-18T00:05:12.799Z,18.10
2023-10-18T00:06:12.779Z,16.70
2023-10-18T00:07:12.771Z,17.20
2023-10-18T00:08:12.724Z,17.70
2023-10-18T00:09:12.761Z,16.30
2023-10-18T00:10:12.724Z,16.70
2023-10-18T00:11:12.635Z,17.10
2023-10-18T00:12:12.618Z,17.00
2023-10-18T00:13:12.668Z,15.10
2023-10-18T00:14:12.571Z,15.90
2023-10-18T00:15:12.532Z,16.00
2023-10-18T00:16:12.559Z,15.60
2023-10-18T00:17:12.486Z,15.50
2023-10-18T00:18:12.693Z,17.50
2023-10-18T00:19:12.506Z,19.10
2023-10-18T00:20:12.412Z,16.10
2023-10-18T00:21:12.385Z,17.50
2023-10-18T00:22:12.362Z,16.00
2023-10-18T00:23:12.324Z,16.50
2023-10-18T00:24:12.313Z,18.20
2023-10-18T00:25:12.451Z,13.90
2023-10-18T00:26:12.248Z,15.50
2023-10-18T00:27:12.220Z,17.00
2023-10-18T00:28:12.222Z,16.40
2023-10-18T00:29:12.171Z,16.00
2023-10-18T00:30:12.148Z,17.70
2023-10-18T00:31:12.289Z,16.30
2023-10-18T00:32:12.099Z,16.80
2023-10-18T00:33:12.068Z,17.20
2023-10-18T00:34:12.066Z,14.50
2023-10-18T00:35:12.011Z,16.30
2023-10-18T00:36:11.997Z,17.10
2023-10-18T00:37:11.996Z,17.90
2023-10-18T00:38:11.938Z,15.60
2023-10-18T00:39:11.912Z,15.60
2023-10-18T00:40:11.942Z,15.00
2023-10-18T00:41:11.929Z,17.50
2023-10-18T00:42:11.836Z,17.10
2023-10-18T00:43:11.915Z,17.10
2023-10-18T00:44:11.775Z,15.20
2023-10-18T00:45:11.772Z,17.80
2023-10-18T00:46:11.825Z,16.40
2023-10-18T00:47:11.745Z,15.90
2023-10-18T00:48:11.676Z,16.20
2023-10-18T00:49:11.687Z,16.40
2023-10-18T00:50:11.620Z,16.20
2023-10-18T00:51:11.594Z,16.30
2023-10-18T00:52:11.665Z,15.00
2023-10-18T00:53:11.549Z,15.10
2023-10-18T00:54:11.514Z,16.00
2023-10-18T00:55:11.562Z,15.80
2023-10-18T00:56:11.468Z,16.30
2023-10-18T00:57:12.448Z,15.60
2023-10-18T00:58:11.441Z,15.70
2023-10-18T00:59:11.385Z,16.90
2023-10-18T01:00:11.389Z,15.90
2023-10-18T01:01:11.637Z,16.60
2023-10-18T01:02:11.322Z,14.40
2023-10-18T01:03:11.333Z,16.10
2023-10-18T01:04:11.317Z,17.90
2023-10-18T01:05:11.258Z,16.00
2023-10-18T01:06:11.223Z,16.00
2023-10-18T01:07:11.313Z,15.40
2023-10-18T01:08:11.154Z,18.40
2023-10-18T01:09:11.143Z,14.90
2023-10-18T01:10:11.271Z,16.80
2023-10-18T01:11:11.066Z,15.80
2023-10-18T01:12:11.049Z,15.50
2023-10-18T01:13:11.070Z,16.50
2023-10-18T01:14:10.992Z,17.20
2023-10-18T01:15:10.958Z,14.40
2023-10-18T01:16:10.999Z,15.20
2023-10-18T01:17:11.021Z,16.50
2023-10-18T01:18:10.889Z,15.50
2023-10-18T01:19:10.901Z,16.60
2023-10-18T01:20:11.028Z,16.70
2023-10-18T01:21:10.805Z,14.80
2023-10-18T01:22:10.836Z,16.00
2023-10-18T01:23:10.755Z,15.50
2023-10-18T01:24:10.732Z,13.60
2023-10-18T01:25:10.751Z,16.00
2023-10-18T01:26:10.677Z,14.90
2023-10-18T01:27:10.647Z,14.70
2023-10-18T01:28:10.642Z,17.90
2023-10-18T01:29:10.619Z,14.30
2023-10-18T01:30:10.584Z,15.90
2023-10-18T01:31:10.634Z,16.80
2023-10-18T01:32:10.519Z,14.50
2023-10-18T01:33:10.545Z,15.60
2023-10-18T01:34:10.579Z,17.00
2023-10-18T01:35:10.431Z,14.40
2023-10-18T01:36:10.410Z,15.30
2023-10-18T01:37:10.404Z,14.20
2023-10-18T01:38:10.368Z,14.80
2023-10-18T01:39:10.336Z,17.30
2023-10-18T01:40:10.324Z,14.50
2023-10-18T01:41:10.285Z,17.00
2023-10-18T01:42:10.254Z,16.10
2023-10-18T01:43:10.266Z,15.40
2023-10-18T01:44:10.200Z,14.50
2023-10-18T01:45:10.197Z,15.00
2023-10-18T01:46:10.250Z,17.20
2023-10-18T01:47:10.198Z,14.80
2023-10-18T01:48:10.136Z,15.70
2023-10-18T01:49:10.128Z,15.50
2023-10-18T01:50:10.065Z,15.70
2023-10-18T01:51:10.017Z,15.30
2023-10-18T01:52:10.032Z,16.60
2023-10-18T01:53:09.959Z,15.20
2023-10-18T01:54:09.942Z,15.20
2023-10-18T01:55:09.907Z,14.60
2023-10-18T01:56:09.889Z,16.40
2023-10-18T01:57:09.863Z,14.70
2023-10-18T01:58:09.844Z,17.70
2023-10-18T01:59:09.807Z,16.50
2023-10-18T02:00:09.786Z,13.70
2023-10-18T02:01:09.866Z,14.90
2023-10-18T02:02:09.756Z,14.60
2023-10-18T02:03:09.760Z,15.60
2023-10-18T02:04:09.742Z,15.30
2023-10-18T02:05:09.832Z,15.80
2023-10-18T02:06:09.625Z,16.90
2023-10-18T02:07:09.596Z,16.30
2023-10-18T02:08:09.574Z,15.90
2023-10-18T02:09:09.544Z,14.00
2023-10-18T02:10:09.563Z,16.10
2023-10-18T02:11:09.494Z,15.30
2023-10-18T02:12:09.466Z,15.10
2023-10-18T02:13:09.474Z,13.90
2023-10-18T02:14:09.410Z,14.30
2023-10-18T02:15:09.382Z,16.10
2023-10-18T02:16:09.448Z,15.10
2023-10-18T02:17:09.389Z,15.20
2023-10-18T02:18:09.402Z,15.70
2023-10-18T02:19:09.386Z,16.60
2023-10-18T02:20:09.253Z,13.90
2023-10-18T02:21:09.222Z,14.10
2023-10-18T02:22:09.213Z,15.60
2023-10-18T02:23:09.169Z,16.50
2023-10-18T02:24:09.144Z,16.40
2023-10-18T02:25:09.144Z,14.90
2023-10-18T02:26:09.092Z,16.40
2023-10-18T02:27:09.066Z,16.10
2023-10-18T02:28:09.092Z,14.10
2023-10-18T02:29:09.008Z,15.30
2023-10-18T02:30:08.989Z,15.50
2023-10-18T02:31:08.984Z,14.70
2023-10-18T02:32:08.972Z,15.80
2023-10-18T02:33:08.927Z,16.90
2023-10-18T02:34:22.642Z,15.60
2023-10-18T02:35:08.862Z,15.70
2023-10-18T02:36:08.830Z,15.70
2023-10-18T02:37:08.834Z,14.50
2023-10-18T02:38:08.790Z,17.30
2023-10-18T02:39:08.747Z,14.80
2023-10-18T02:40:09.237Z,14.30
2023-10-18T02:41:08.697Z,17.30
2023-10-18T02:42:08.664Z,15.90
2023-10-18T02:43:08.677Z,16.30
2023-10-18T02:44:08.615Z,15.50
2023-10-18T02:45:08.584Z,13.80
2023-10-18T02:46:08.602Z,16.70
2023-10-18T02:47:08.528Z,15.40
2023-10-18T02:48:08.521Z,18.50
2023-10-18T02:49:08.556Z,17.30
2023-10-18T02:50:08.449Z,15.50
2023-10-18T02:51:08.417Z,14.20
2023-10-18T02:52:08.425Z,16.40
2023-10-18T02:53:08.364Z,15.30
2023-10-18T02:54:08.345Z,15.00
2023-10-18T02:55:08.407Z,16.30
2023-10-18T02:56:08.284Z,16.40
2023-10-18T02:57:08.264Z,15.30
2023-10-18T02:58:08.427Z,16.60
2023-10-18T02:59:08.292Z,17.90
2023-10-18T03:00:08.182Z,16.20
2023-10-18T03:01:08.212Z,15.40
2023-10-18T03:02:08.131Z,15.30
2023-10-18T03:03:08.152Z,15.80
2023-10-18T03:04:08.200Z,16.10
2023-10-18T03:05:08.126Z,17.50
2023-10-18T03:06:08.020Z,15.30
2023-10-18T03:07:08.013Z,15.80
2023-10-18T03:08:07.964Z,15.70
2023-10-18T03:09:07.939Z,17.30
2023-10-18T03:10:07.928Z,15.90
2023-10-18T03:11:07.886Z,16.90
2023-10-18T03:12:08.991Z,16.30
2023-10-18T03:13:07.849Z,14.40
2023-10-18T03:14:07.804Z,15.10
2023-10-18T03:15:07.787Z,16.30
2023-10-18T03:16:07.860Z,15.60
2023-10-18T03:17:07.866Z,16.50
2023-10-18T03:18:07.817Z,17.20
2023-10-18T03:19:07.720Z,15.90
2023-10-18T03:20:07.648Z,15.30
2023-10-18T03:21:07.657Z,16.60
2023-10-18T03:22:07.642Z,17.90
2023-10-18T03:23:07.575Z,14.40
2023-10-18T03:24:07.543Z,16.00
2023-10-18T03:25:07.584Z,15.40
2023-10-18T03:26:07.490Z,15.10
2023-10-18T03:27:07.485Z,16.50
2023-10-18T03:28:07.468Z,17.60
2023-10-18T03:29:07.427Z,16.30
2023-10-18T03:30:07.444Z,15.80
2023-10-18T03:31:07.425Z,15.70
2023-10-18T03:32:07.387Z,14.70
2023-10-18T03:33:07.327Z,16.40
2023-10-18T03:34:07.332Z,16.60
2023-10-18T03:35:07.258Z,16.90
2023-10-18T03:36:18.286Z,16.70
2023-10-18T03:37:07.286Z,16.90
2023-10-18T03:38:07.172Z,18.20
2023-10-18T03:39:07.149Z,19.40
2023-10-18T03:40:07.190Z,16.70
2023-10-18T03:41:07.095Z,17.40
2023-10-18T03:42:07.067Z,18.30
2023-10-18T03:43:07.111Z,17.70
2023-10-18T03:44:07.020Z,18.40
2023-10-18T03:45:06.987Z,20.00
2023-10-18T03:46:07.025Z,16.50
2023-10-18T03:47:06.940Z,17.30
2023-10-18T03:48:06.922Z,18.50
2023-10-18T03:49:06.943Z,16.20
2023-10-18T03:50:06.857Z,17.60
2023-10-18T03:51:06.835Z,17.60
2023-10-18T03:52:06.841Z,17.90
2023-10-18T03:53:06.800Z,17.30
2023-10-18T03:54:06.746Z,19.10
2023-10-18T03:55:06.808Z,18.20
2023-10-18T03:56:06.689Z,19.90
2023-10-18T03:57:06.669Z,17.30
2023-10-18T03:58:06.706Z,16.70
2023-10-18T03:59:06.611Z,19.20
2023-10-18T04:00:06.588Z,18.90
2023-10-18T04:01:06.769Z,19.60
2023-10-18T04:02:06.580Z,18.30
2023-10-18T04:03:06.611Z,17.50
2023-10-18T04:04:06.588Z,17.30
2023-10-18T04:05:06.458Z,19.30
2023-10-18T04:06:06.426Z,17.40
2023-10-18T04:07:06.489Z,18.40
2023-10-18T04:08:06.366Z,18.80
2023-10-18T04:09:06.365Z,18.60
2023-10-18T04:10:06.351Z,19.30
2023-10-18T04:11:06.289Z,17.20
2023-10-18T04:12:06.262Z,19.10
2023-10-18T04:13:06.269Z,18.30
2023-10-18T04:14:06.216Z,17.90
2023-10-18T04:15:06.185Z,19.90
2023-10-18T04:16:06.200Z,17.20
2023-10-18T04:17:06.128Z,19.00
2023-10-18T04:18:06.133Z,18.40
2023-10-18T04:19:06.156Z,19.30
2023-10-18T04:20:06.047Z,21.30
2023-10-18T04:21:06.023Z,18.60
2023-10-18T04:22:06.045Z,16.40
2023-10-18T04:23:05.973Z,16.30
2023-10-18T04:24:05.938Z,16.40
2023-10-18T04:25:05.984Z,18.60
2023-10-18T04:26:05.891Z,18.40
2023-10-18T04:27:05.861Z,17.90
2023-10-18T04:28:05.888Z,19.00
2023-10-18T04:29:05.826Z,19.50
2023-10-18T04:30:05.786Z,19.30
2023-10-18T04:31:05.888Z,19.10
2023-10-18T04:32:05.743Z,18.80
2023-10-18T04:33:05.752Z,17.90
2023-10-18T04:34:05.744Z,19.70
2023-10-18T04:35:05.649Z,17.60
2023-10-18T04:36:05.614Z,19.70
2023-10-18T04:37:05.691Z,18.90
2023-10-18T04:38:05.561Z,21.10
2023-10-18T04:39:05.544Z,18.00
2023-10-18T04:40:05.554Z,19.50
2023-10-18T04:41:05.513Z,21.60
2023-10-18T04:42:05.455Z,19.70
2023-10-18T04:43:05.436Z,19.70
2023-10-18T04:44:05.408Z,18.20
2023-10-18T04:45:05.378Z,17.80
2023-10-18T04:46:05.438Z,19.50
2023-10-18T04:47:05.398Z,18.30
2023-10-18T04:48:05.321Z,19.00
2023-10-18T04:49:05.305Z,18.00
2023-10-18T04:50:05.250Z,18.20
2023-10-18T04:51:05.214Z,19.30
2023-10-18T04:52:05.208Z,18.70
2023-10-18T04:53:05.170Z,23.80
2023-10-18T04:54:05.137Z,18.40
2023-10-18T04:55:05.159Z,19.90
2023-10-18T04:56:05.081Z,18.90
2023-10-18T04:57:05.078Z,17.70
2023-10-18T04:58:05.052Z,17.00
2023-10-18T04:59:05.006Z,17.20
2023-10-18T05:00:04.982Z,18.50
2023-10-18T05:01:04.984Z,21.00
2023-10-18T05:02:04.991Z,18.60
2023-10-18T05:03:04.919Z,20.50
2023-10-18T05:04:04.956Z,18.10
2023-10-18T05:05:05.646Z,19.50
2023-10-18T05:06:04.820Z,18.80
2023-10-18T05:07:04.800Z,17.50
2023-10-18T05:08:04.769Z,19.20
2023-10-18T05:09:04.740Z,18.40
2023-10-18T05:10:04.729Z,18.00
2023-10-18T05:11:04.690Z,20.10
2023-10-18T05:12:04.669Z,21.80
2023-10-18T05:13:04.703Z,18.90
2023-10-18T05:14:04.616Z,18.10
2023-10-18T05:15:04.588Z,18.70
2023-10-18T05:16:04.625Z,18.60
2023-10-18T05:17:04.668Z,17.70
2023-10-18T05:18:04.579Z,18.10
2023-10-18T05:19:04.512Z,19.30
2023-10-18T05:20:04.445Z,21.30
2023-10-18T05:21:04.428Z,19.20
2023-10-18T05:22:04.452Z,20.30
2023-10-18T05:23:04.373Z,17.90
2023-10-18T05:24:04.342Z,19.90
2023-10-18T05:25:04.369Z,22.20
2023-10-18T05:26:04.291Z,18.50
2023-10-18T05:27:04.269Z,20.10
2023-10-18T05:28:04.272Z,20.50
2023-10-18T05:29:04.234Z,18.40
2023-10-18T05:30:04.183Z,21.20
2023-10-18T05:31:04.280Z,17.40
2023-10-18T05:32:04.198Z,21.60
2023-10-18T05:33:04.179Z,20.50
2023-10-18T05:34:04.090Z,17.30
2023-10-18T05:35:12.926Z,20.30
2023-10-18T05:36:04.033Z,19.00
2023-10-18T05:37:04.059Z,17.70
2023-10-18T05:38:03.983Z,17.40
2023-10-18T05:39:03.944Z,19.00
2023-10-18T05:40:03.940Z,19.10
2023-10-18T05:41:03.902Z,21.60
2023-10-18T05:42:03.866Z,16.90
2023-10-18T05:43:03.897Z,19.90
2023-10-18T05:44:03.880Z,17.70
2023-10-18T05:45:03.813Z,20.90
2023-10-18T05:46:03.827Z,18.10
2023-10-18T05:47:03.763Z,17.10
2023-10-18T05:48:03.733Z,17.40
2023-10-18T05:49:03.711Z,20.60
2023-10-18T05:50:03.655Z,18.80
2023-10-18T05:51:03.641Z,18.70
2023-10-18T05:52:03.650Z,19.80
2023-10-18T05:53:03.584Z,20.30
2023-10-18T05:54:03.541Z,22.80
2023-10-18T05:55:03.553Z,18.80
2023-10-18T05:56:03.493Z,18.90
2023-10-18T05:57:03.467Z,20.50
2023-10-18T05:58:03.491Z,16.90
2023-10-18T05:59:03.419Z,17.60
2023-10-18T06:00:03.391Z,18.50
2023-10-18T06:01:03.424Z,16.90
2023-10-18T06:02:03.444Z,21.00
2023-10-18T06:03:03.375Z,18.30
2023-10-18T06:04:03.352Z,19.60
2023-10-18T06:05:03.266Z,18.30
2023-10-18T06:06:03.229Z,17.80
2023-10-18T06:07:03.230Z,19.70
2023-10-18T06:08:03.175Z,21.10
2023-10-18T06:09:03.164Z,20.60
2023-10-18T06:10:03.165Z,19.00
2023-10-18T06:11:03.098Z,18.40
2023-10-18T06:12:03.074Z,20.00
2023-10-18T06:13:03.101Z,18.40
2023-10-18T06:14:03.021Z,18.80
2023-10-18T06:15:02.991Z,18.70
2023-10-18T06:16:02.985Z,16.70
2023-10-18T06:17:03.131Z,17.40
2023-10-18T06:18:02.917Z,20.10
2023-10-18T06:19:02.980Z,17.90
2023-10-18T06:20:02.848Z,16.40
2023-10-18T06:21:02.835Z,17.20
2023-10-18T06:22:02.848Z,16.70
2023-10-18T06:23:02.777Z,17.80
2023-10-18T06:24:02.749Z,18.50
2023-10-18T06:25:02.762Z,20.80
2023-10-18T06:26:02.700Z,17.20
2023-10-18T06:27:02.678Z,18.50
2023-10-18T06:28:02.649Z,16.90
2023-10-18T06:29:02.619Z,16.80
2023-10-18T06:30:02.648Z,19.50
2023-10-18T06:31:02.699Z,15.70
2023-10-18T06:32:02.578Z,18.00
2023-10-18T06:33:02.591Z,17.80
2023-10-18T06:34:02.577Z,19.10
2023-10-18T06:35:02.462Z,18.90
2023-10-18T06:36:02.429Z,18.60
2023-10-18T06:37:02.420Z,17.30
2023-10-18T06:38:02.379Z,16.80
2023-10-18T06:39:02.364Z,17.30
2023-10-18T06:40:02.424Z,16.50
2023-10-18T06:41:06.364Z,20.80
2023-10-18T06:42:02.269Z,15.50
2023-10-18T06:43:02.291Z,17.70
2023-10-18T06:44:02.219Z,14.90
2023-10-18T06:45:02.194Z,17.40
2023-10-18T06:46:02.273Z,16.30
2023-10-18T06:47:02.321Z,17.90
2023-10-18T06:48:02.142Z,16.80
2023-10-18T06:49:10.920Z,16.70
2023-10-18T06:50:17.251Z,16.40
2023-10-18T06:51:02.039Z,17.60
2023-10-18T06:52:02.048Z,18.10
2023-10-18T06:53:02.059Z,17.40
2023-10-18T06:54:01.952Z,17.50
2023-10-18T06:55:01.925Z,17.30
2023-10-18T06:56:04.194Z,17.00
2023-10-18T06:57:01.879Z,16.70
2023-10-18T06:58:01.885Z,15.90
2023-10-18T06:59:01.828Z,16.90
2023-10-18T07:00:01.797Z,17.00
2023-10-18T07:01:01.853Z,18.50
2023-10-18T07:02:01.820Z,18.00
2023-10-18T07:03:01.924Z,17.60
2023-10-18T07:04:01.850Z,17.60
2023-10-18T07:05:01.690Z,16.90
2023-10-18T07:06:01.629Z,17.00
2023-10-18T07:07:01.656Z,18.60
2023-10-18T07:08:01.581Z,17.80
2023-10-18T07:09:01.552Z,18.20
2023-10-18T07:10:01.560Z,17.90
2023-10-18T07:11:18.422Z,16.70
2023-10-18T07:12:01.476Z,16.40
2023-10-18T07:13:01.466Z,18.20
2023-10-18T07:14:01.485Z,18.40
2023-10-18T07:15:01.388Z,16.80
2023-10-18T07:16:01.452Z,16.40
2023-10-18T07:17:01.394Z,16.80
2023-10-18T07:18:01.356Z,16.70
2023-10-18T07:19:01.326Z,16.70
2023-10-18T07:20:01.262Z,15.90
2023-10-18T07:21:01.255Z,16.60
2023-10-18T07:22:01.243Z,15.00
2023-10-18T07:23:01.183Z,16.60
2023-10-18T07:24:01.153Z,16.50
2023-10-18T07:25:01.149Z,18.40
2023-10-18T07:26:08.654Z,16.40
2023-10-18T07:27:01.078Z,18.60
2023-10-18T07:28:01.089Z,16.10
2023-10-18T07:29:01.019Z,17.30
2023-10-18T07:30:01.009Z,16.80
2023-10-18T07:31:01.014Z,18.00
2023-10-18T07:32:01.158Z,19.10
2023-10-18T07:33:00.935Z,17.50
2023-10-18T07:34:00.925Z,19.70
2023-10-18T07:35:00.863Z,17.40
2023-10-18T07:36:00.853Z,16.80
2023-10-18T07:37:00.871Z,19.60
2023-10-18T07:38:00.783Z,17.30
2023-10-18T07:39:00.756Z,18.50
2023-10-18T07:40:00.744Z,16.40
2023-10-18T07:41:00.712Z,17.50
2023-10-18T07:42:00.683Z,19.50
2023-10-18T07:43:00.665Z,16.30
2023-10-18T07:44:00.628Z,19.30
2023-10-18T07:45:00.609Z,17.70
2023-10-18T07:46:00.590Z,19.60
2023-10-18T07:47:00.538Z,20.50
2023-10-18T07:48:00.592Z,19.90
2023-10-18T07:49:00.582Z,18.70
2023-10-18T07:50:00.474Z,19.90
2023-10-18T07:51:00.439Z,20.90
2023-10-18T07:52:00.729Z,17.20
2023-10-18T07:53:00.446Z,17.80
2023-10-18T07:54:00.452Z,19.10
2023-10-18T07:55:00.343Z,19.80
2023-10-18T07:56:00.306Z,19.40
2023-10-18T07:57:00.284Z,18.00
2023-10-18T07:58:00.314Z,22.20
2023-10-18T07:59:00.232Z,17.60
2023-10-18T08:00:00.359Z,21.10
2023-10-18T08:01:00.237Z,20.40
2023-10-18T08:02:00.282Z,19.60
2023-10-18T08:03:00.257Z,16.80
2023-10-18T08:04:00.272Z,20.00
2023-10-18T08:05:00.387Z,20.80
2023-10-18T08:06:00.174Z,18.10
2023-10-18T08:07:00.064Z,20.00
2023-10-18T08:07:59.998Z,16.90
2023-10-18T08:08:59.986Z,17.40
2023-10-18T08:09:59.992Z,19.10
2023-10-18T08:10:59.912Z,17.10
2023-10-18T08:11:59.883Z,22.40
2023-10-18T08:12:59.938Z,19.20
2023-10-18T08:13:59.838Z,16.80
2023-10-18T08:14:59.813Z,17.00
2023-10-18T08:15:59.791Z,18.90
2023-10-18T08:16:59.761Z,21.20
2023-10-18T08:17:59.758Z,19.50
2023-10-18T08:18:59.717Z,15.70
2023-10-18T08:19:59.692Z,17.50
2023-10-18T08:20:59.654Z,18.40
2023-10-18T08:21:59.663Z,18.00
2023-10-18T08:22:59.593Z,16.50
2023-10-18T08:23:59.571Z,18.10
2023-10-18T08:24:59.649Z,17.10
2023-10-18T08:25:59.515Z,19.90
2023-10-18T08:26:59.493Z,17.70
2023-10-18T08:27:59.479Z,16.60
2023-10-18T08:28:59.441Z,18.50
2023-10-18T08:29:59.420Z,16.10
2023-10-18T08:30:59.438Z,16.40
2023-10-18T08:31:59.408Z,17.80
2023-10-18T08:32:59.454Z,15.20
2023-10-18T08:33:59.336Z,16.20
2023-10-18T08:34:59.275Z,19.10
2023-10-18T08:35:59.250Z,18.80
2023-10-18T08:36:59.254Z,16.90
2023-10-18T08:37:59.201Z,17.70
2023-10-18T08:38:59.169Z,16.40
2023-10-18T08:39:59.168Z,16.30
2023-10-18T08:40:59.144Z,17.10
2023-10-18T08:41:59.102Z,17.90
2023-10-18T08:42:59.172Z,15.60
2023-10-18T08:43:59.066Z,15.70
2023-10-18T08:44:59.015Z,16.20
2023-10-18T08:45:59.003Z,16.60
2023-10-18T08:46:58.990Z,18.90
2023-10-18T08:47:58.989Z,18.20
2023-10-18T08:48:58.987Z,15.40
2023-10-18T08:49:58.896Z,16.60
2023-10-18T08:50:58.861Z,16.10
2023-10-18T08:51:58.918Z,18.80
2023-10-18T08:52:58.805Z,16.90
2023-10-18T08:53:58.786Z,17.20
2023-10-18T08:54:58.782Z,16.00
2023-10-18T08:55:58.857Z,17.60
2023-10-18T08:56:58.725Z,15.50
2023-10-18T08:57:58.738Z,18.00
2023-10-18T08:58:58.659Z,17.80
2023-10-18T08:59:58.628Z,15.00
2023-10-18T09:00:58.672Z,16.20
2023-10-18T09:01:58.652Z,16.90
2023-10-18T09:02:58.715Z,16.30
2023-10-18T09:03:58.623Z,16.90
2023-10-18T09:04:58.521Z,13.90
2023-10-18T09:05:58.473Z,14.90
2023-10-18T09:06:58.480Z,15.30
2023-10-18T09:07:58.421Z,15.60
2023-10-18T09:08:58.386Z,15.20
2023-10-18T09:09:58.435Z,14.90
2023-10-18T09:10:58.504Z,13.70
2023-10-18T09:11:58.326Z,14.70
2023-10-18T09:12:58.329Z,12.00
2023-10-18T09:13:58.315Z,14.10
2023-10-18T09:14:58.233Z,14.90
2023-10-18T09:16:01.067Z,13.20
2023-10-18T09:16:58.259Z,12.70
2023-10-18T09:17:58.233Z,11.40
2023-10-18T09:18:58.179Z,13.50
2023-10-18T09:19:58.104Z,12.70
2023-10-18T09:20:58.078Z,13.20
2023-10-18T09:22:58.026Z,14.30
2023-10-18T09:23:58.003Z,12.70
2023-10-18T09:24:58.000Z,15.10
2023-10-18T09:25:57.949Z,12.30
2023-10-18T09:26:57.918Z,13.40
2023-10-18T09:27:57.946Z,12.50
2023-10-18T09:28:57.890Z,12.50
2023-10-18T09:29:57.845Z,12.10
2023-10-18T09:30:57.872Z,13.30
2023-10-18T09:31:57.893Z,12.00
2023-10-18T09:32:57.798Z,14.00
2023-10-18T09:33:57.868Z,11.90
2023-10-18T09:34:57.714Z,11.80
2023-10-18T09:35:57.690Z,13.50
2023-10-18T09:36:57.966Z,12.50
2023-10-18T09:37:57.642Z,11.20
2023-10-18T09:38:57.615Z,11.20
2023-10-18T09:39:57.605Z,11.80
2023-10-18T09:40:57.562Z,12.10
2023-10-18T09:41:57.534Z,12.40
2023-10-18T09:42:57.527Z,13.00
2023-10-18T09:43:57.484Z,16.10
2023-10-18T09:44:57.483Z,13.00
2023-10-18T09:45:57.457Z,11.30
2023-10-18T09:46:57.425Z,11.90
2023-10-18T09:47:57.467Z,11.90
2023-10-18T09:48:57.365Z,14.90
2023-10-18T09:49:57.339Z,11.70
2023-10-18T09:50:57.307Z,11.30
2023-10-18T09:51:57.299Z,11.60
2023-10-18T09:52:57.253Z,12.70
2023-10-18T09:53:57.233Z,11.20
2023-10-18T09:54:57.211Z,11.70
2023-10-18T09:55:57.178Z,10.70
2023-10-18T09:56:57.138Z,10.60
2023-10-18T09:57:57.502Z,12.60
2023-10-18T09:58:57.099Z,11.40
2023-10-18T09:59:57.155Z,12.70
2023-10-18T10:00:57.084Z,12.00
2023-10-18T10:01:57.218Z,14.00
2023-10-18T10:02:57.052Z,12.30
2023-10-18T10:03:57.029Z,11.00
2023-10-18T10:04:57.065Z,12.90
2023-10-18T10:05:56.918Z,12.70
2023-10-18T10:06:56.954Z,11.60
2023-10-18T10:07:56.869Z,12.70
2023-10-18T10:08:56.839Z,10.40
2023-10-18T10:09:56.848Z,10.80
2023-10-18T10:10:56.794Z,10.90
2023-10-18T10:11:56.777Z,11.80
2023-10-18T10:12:56.751Z,11.80
2023-10-18T10:13:56.786Z,11.90
2023-10-18T10:14:56.680Z,10.70
2023-10-18T10:15:56.700Z,10.60
2023-10-18T10:16:56.696Z,11.00
2023-10-18T10:17:56.814Z,11.40
2023-10-18T10:18:56.595Z,13.40
2023-10-18T10:19:56.561Z,11.30
2023-10-18T10:20:56.527Z,11.30
2023-10-18T10:21:56.533Z,10.70
2023-10-18T10:22:56.482Z,10.90
2023-10-18T10:23:56.602Z,11.40
2023-10-18T10:25:05.613Z,12.20
2023-10-18T10:26:07.812Z,12.40
2023-10-18T10:26:56.424Z,12.10
2023-10-18T10:27:56.362Z,10.00
2023-10-18T10:28:56.330Z,12.30
2023-10-18T10:29:56.310Z,10.30
2023-10-18T10:30:56.341Z,10.80
2023-10-18T10:31:56.505Z,12.20
2023-10-18T10:32:56.296Z,11.00
2023-10-18T10:33:56.230Z,10.60
2023-10-18T10:34:56.177Z,11.30
2023-10-18T10:35:56.184Z,10.90
2023-10-18T10:36:56.153Z,10.80
2023-10-18T10:37:56.118Z,9.80
2023-10-18T10:38:56.069Z,10.00
2023-10-18T10:39:56.085Z,11.00
2023-10-18T10:40:56.029Z,10.30
2023-10-18T10:41:56.019Z,13.80
2023-10-18T10:42:55.994Z,10.30
2023-10-18T10:43:55.956Z,10.80
2023-10-18T10:44:55.926Z,9.70
2023-10-18T10:45:55.965Z,10.40
2023-10-18T10:46:55.923Z,10.60
2023-10-18T10:47:55.876Z,10.60
2023-10-18T10:48:55.863Z,9.70
2023-10-18T10:49:55.806Z,10.40
2023-10-18T10:50:55.839Z,11.10
2023-10-18T10:51:55.776Z,10.80
2023-10-18T10:52:55.726Z,11.10
2023-10-18T10:53:55.705Z,10.50
2023-10-18T10:54:55.716Z,11.90
2023-10-18T10:55:55.653Z,11.30
2023-10-18T10:56:55.627Z,10.30
2023-10-18T10:57:55.705Z,10.70
2023-10-18T10:58:55.929Z,10.30
2023-10-18T10:59:55.573Z,11.00
2023-10-18T11:00:58.087Z,9.70
2023-10-18T11:01:56.050Z,10.20
2023-10-18T11:02:55.760Z,9.30
2023-10-18T11:03:55.774Z,10.40
2023-10-18T11:04:55.440Z,10.20
2023-10-18T11:05:55.477Z,11.80
2023-10-18T11:06:55.521Z,10.20
2023-10-18T11:07:55.431Z,9.90
2023-10-18T11:08:55.372Z,11.00
2023-10-18T11:09:55.317Z,11.20
2023-10-18T11:10:55.270Z,9.50
2023-10-18T11:11:55.248Z,9.50
2023-10-18T11:12:55.259Z,10.80
2023-10-18T11:13:55.200Z,12.20
2023-10-18T11:14:55.170Z,10.30
2023-10-18T11:15:55.191Z,10.30
2023-10-18T11:16:55.468Z,10.80
2023-10-18T11:17:55.112Z,11.00
2023-10-18T11:18:55.066Z,10.40
2023-10-18T11:19:55.268Z,10.20
2023-10-18T11:20:55.047Z,12.50
2023-10-18T11:21:55.052Z,10.60
2023-10-18T11:22:54.968Z,14.80
2023-10-18T11:23:54.943Z,10.30
2023-10-18T11:24:54.997Z,11.90
2023-10-18T11:25:54.894Z,10.70
2023-10-18T11:26:54.872Z,11.30
2023-10-18T11:27:54.842Z,9.50
2023-10-18T11:28:54.816Z,9.70
2023-10-18T11:29:54.793Z,10.10
2023-10-18T11:30:55.255Z,10.30
2023-10-18T11:31:54.847Z,9.00
2023-10-18T11:32:54.886Z,9.60
2023-10-18T11:33:54.752Z,11.00
2023-10-18T11:34:54.677Z,10.50
2023-10-18T11:35:54.645Z,9.40
2023-10-18T11:36:54.676Z,9.10
2023-10-18T11:37:54.594Z,9.20
2023-10-18T11:38:54.570Z,9.90
2023-10-18T11:39:54.573Z,9.40
2023-10-18T11:40:54.524Z,10.00
2023-10-18T11:41:54.691Z,9.80
2023-10-18T11:42:54.494Z,10.60
2023-10-18T11:43:54.450Z,10.10
2023-10-18T11:44:54.425Z,9.30
2023-10-18T11:45:54.457Z,10.70
2023-10-18T11:46:54.408Z,8.60
2023-10-18T11:47:54.363Z,9.20
2023-10-18T11:48:54.350Z,8.80
2023-10-18T11:49:54.497Z,10.00
2023-10-18T11:50:54.272Z,9.60
2023-10-18T11:51:54.283Z,8.90
2023-10-18T11:52:54.246Z,10.60
2023-10-18T11:53:54.189Z,10.00
2023-10-18T11:54:54.246Z,9.60
2023-10-18T11:55:54.147Z,9.60
2023-10-18T11:56:54.122Z,8.40
2023-10-18T11:57:54.263Z,9.70
2023-10-18T11:58:54.082Z,11.20
2023-10-18T11:59:54.044Z,9.30
2023-10-18T12:00:54.041Z,11.10
2023-10-18T12:01:54.017Z,7.40
2023-10-18T12:02:54.065Z,8.00
2023-10-18T12:03:54.032Z,7.70
2023-10-18T12:04:54.050Z,10.20
2023-10-18T12:05:53.896Z,7.50
2023-10-18T12:06:53.868Z,9.20
2023-10-18T12:07:53.843Z,8.20
2023-10-18T12:08:53.964Z,9.90
2023-10-18T12:09:53.801Z,8.60
2023-10-18T12:10:53.777Z,9.50
2023-10-18T12:11:53.746Z,9.80
2023-10-18T12:12:53.721Z,9.00
2023-10-18T12:13:53.693Z,9.70
2023-10-18T12:14:53.678Z,8.50
2023-10-18T12:15:55.224Z,9.10
2023-10-18T12:16:53.718Z,9.00
2023-10-18T12:17:53.661Z,9.70
2023-10-18T12:18:53.572Z,11.70
2023-10-18T12:19:53.551Z,11.60
2023-10-18T12:20:53.515Z,9.60
2023-10-18T12:21:53.496Z,12.30
2023-10-18T12:22:53.477Z,12.30
2023-10-18T12:23:54.573Z,9.60
2023-10-18T12:24:53.444Z,9.20
2023-10-18T12:25:53.401Z,8.20
2023-10-18T12:26:53.376Z,8.80
2023-10-18T12:27:53.349Z,9.90
2023-10-18T12:28:53.345Z,7.80
2023-10-18T12:29:53.472Z,6.90
2023-10-18T12:30:53.304Z,8.10
2023-10-18T12:31:53.303Z,9.20
2023-10-18T12:32:53.251Z,8.60
2023-10-18T12:33:53.197Z,9.10
2023-10-18T12:34:53.191Z,7.70
2023-10-18T12:35:53.150Z,7.20
2023-10-18T12:36:53.128Z,8.60
2023-10-18T12:37:53.105Z,7.60
2023-10-18T12:38:53.070Z,9.50
2023-10-18T12:39:53.049Z,7.80
2023-10-18T12:40:53.065Z,8.90
2023-10-18T12:41:52.997Z,8.20
2023-10-18T12:42:52.981Z,7.70
2023-10-18T12:43:52.956Z,8.30
2023-10-18T12:44:53.263Z,9.70
2023-10-18T12:45:52.974Z,8.50
2023-10-18T12:46:52.895Z,8.40
2023-10-18T12:47:52.894Z,9.00
2023-10-18T12:48:52.833Z,8.60
2023-10-18T12:49:52.799Z,10.30
2023-10-18T12:50:52.787Z,8.40
2023-10-18T12:51:54.955Z,8.90
2023-10-18T12:52:52.862Z,8.80
2023-10-18T12:53:52.715Z,7.40
2023-10-18T12:54:52.716Z,8.90
2023-10-18T12:55:52.654Z,8.40